sensor_id;sensor_type;location;lat;lon;timestamp;P1;durP1;ratioP1;P2;durP2;ratioP2
6679;SDS011;3376;42.664;23.346;2023-03-01T00:01:53;3.70;;;3.50;;
6679;SDS011;3376;42.664;23.346;2023-03-01T00:04:19;3.77;;;3.57;;
6679;SDS011;3376;42.664;23.346;2023-03-01T00:06:46;3.17;;;3.07;;
6679;SDS011;3376;42.664;23.346;2023-03-01T00:09:13;4.03;;;3.83;;
6679;SDS011;3376;42.664;23.346;2023-03-01T00:11:42;3.47;;;3.30;;
6679;SDS011;3376;42.664;23.346;2023-03-01T00:14:09;3.47;;;3.17;;
6679;SDS011;3376;42.664;23.346;2023-03-01T00:16:37;3.20;;;3.10;;
6679;SDS011;3376;42.664;23.346;2023-03-01T00:19:05;3.33;;;3.20;;
6679;SDS011;3376;42.664;23.346;2023-03-01T00:21:32;3.27;;;3.17;;
6679;SDS011;3376;42.664;23.346;2023-03-01T00:24:00;2.90;;;2.80;;
6679;SDS011;3376;42.664;23.346;2023-03-01T00:26:27;2.77;;;2.67;;
6679;SDS011;3376;42.664;23.346;2023-03-01T00:28:56;2.60;;;2.50;;
6679;SDS011;3376;42.664;23.346;2023-03-01T00:31:24;3.07;;;2.97;;
6679;SDS011;3376;42.664;23.346;2023-03-01T00:33:54;2.37;;;2.27;;
6679;SDS011;3376;42.664;23.346;2023-03-01T00:36:23;2.53;;;2.43;;
6679;SDS011;3376;42.664;23.346;2023-03-01T00:38:50;6.83;;;6.33;;
6679;SDS011;3376;42.664;23.346;2023-03-01T00:41:18;2.63;;;2.53;;
6679;SDS011;3376;42.664;23.346;2023-03-01T00:43:47;4.17;;;2.80;;
6679;SDS011;3376;42.664;23.346;2023-03-01T00:46:17;2.73;;;2.63;;
6679;SDS011;3376;42.664;23.346;2023-03-01T00:48:46;3.13;;;3.03;;
6679;SDS011;3376;42.664;23.346;2023-03-01T00:51:13;2.80;;;2.70;;
6679;SDS011;3376;42.664;23.346;2023-03-01T00:53:42;3.37;;;3.17;;
6679;SDS011;3376;42.664;23.346;2023-03-01T00:56:09;2.90;;;2.80;;
6679;SDS011;3376;42.664;23.346;2023-03-01T00:58:38;2.80;;;2.70;;
6679;SDS011;3376;42.664;23.346;2023-03-01T01:01:08;2.80;;;2.70;;
6679;SDS011;3376;42.664;23.346;2023-03-01T01:03:44;2.17;;;2.07;;
6679;SDS011;3376;42.664;23.346;2023-03-01T01:06:15;2.90;;;2.70;;
6679;SDS011;3376;42.664;23.346;2023-03-01T01:08:43;2.33;;;2.23;;
6679;SDS011;3376;42.664;23.346;2023-03-01T01:11:11;2.53;;;2.43;;
6679;SDS011;3376;42.664;23.346;2023-03-01T01:13:38;1.70;;;1.60;;
6679;SDS011;3376;42.664;23.346;2023-03-01T01:16:05;2.20;;;2.10;;
6679;SDS011;3376;42.664;23.346;2023-03-01T01:18:33;2.23;;;2.13;;
6679;SDS011;3376;42.664;23.346;2023-03-01T01:21:04;2.37;;;2.27;;
6679;SDS011;3376;42.664;23.346;2023-03-01T01:23:33;2.30;;;2.20;;
6679;SDS011;3376;42.664;23.346;2023-03-01T01:26:03;1.97;;;1.90;;
6679;SDS011;3376;42.664;23.346;2023-03-01T01:28:30;2.10;;;2.00;;
6679;SDS011;3376;42.664;23.346;2023-03-01T01:30:57;2.20;;;2.10;;
6679;SDS011;3376;42.664;23.346;2023-03-01T01:33:24;1.53;;;1.53;;
6679;SDS011;3376;42.664;23.346;2023-03-01T01:35:51;1.70;;;1.70;;
6679;SDS011;3376;42.664;23.346;2023-03-01T01:38:20;1.20;;;1.20;;
6679;SDS011;3376;42.664;23.346;2023-03-01T01:40:47;1.00;;;1.00;;
6679;SDS011;3376;42.664;23.346;2023-03-01T01:43:17;1.77;;;1.67;;
6679;SDS011;3376;42.664;23.346;2023-03-01T01:45:46;1.70;;;1.70;;
6679;SDS011;3376;42.664;23.346;2023-03-01T01:48:14;1.60;;;1.60;;
6679;SDS011;3376;42.664;23.346;2023-03-01T01:50:45;1.73;;;1.63;;
6679;SDS011;3376;42.664;23.346;2023-03-01T01:53:17;1.30;;;1.30;;
6679;SDS011;3376;42.664;23.346;2023-03-01T01:55:48;1.40;;;1.40;;
6679;SDS011;3376;42.664;23.346;2023-03-01T01:58:20;1.30;;;1.30;;
6679;SDS011;3376;42.664;23.346;2023-03-01T02:00:48;1.47;;;1.47;;
6679;SDS011;3376;42.664;23.346;2023-03-01T02:03:17;1.23;;;1.23;;
6679;SDS011;3376;42.664;23.346;2023-03-01T02:05:47;1.20;;;1.20;;
6679;SDS011;3376;42.664;23.346;2023-03-01T02:08:21;1.40;;;1.40;;
6679;SDS011;3376;42.664;23.346;2023-03-01T02:10:51;1.30;;;1.30;;
6679;SDS011;3376;42.664;23.346;2023-03-01T02:13:18;1.87;;;1.87;;
6679;SDS011;3376;42.664;23.346;2023-03-01T02:15:45;1.90;;;1.90;;
6679;SDS011;3376;42.664;23.346;2023-03-01T02:18:12;1.50;;;1.50;;
6679;SDS011;3376;42.664;23.346;2023-03-01T02:20:44;1.60;;;1.60;;
6679;SDS011;3376;42.664;23.346;2023-03-01T02:23:22;1.40;;;1.40;;
6679;SDS011;3376;42.664;23.346;2023-03-01T02:25:52;1.30;;;1.30;;
6679;SDS011;3376;42.664;23.346;2023-03-01T02:28:30;1.80;;;1.80;;
6679;SDS011;3376;42.664;23.346;2023-03-01T02:30:58;1.53;;;1.53;;
6679;SDS011;3376;42.664;23.346;2023-03-01T02:33:42;1.70;;;1.70;;
6679;SDS011;3376;42.664;23.346;2023-03-01T02:36:11;1.80;;;1.70;;
6679;SDS011;3376;42.664;23.346;2023-03-01T02:38:41;1.47;;;1.47;;
6679;SDS011;3376;42.664;23.346;2023-03-01T02:41:08;1.83;;;1.83;;
6679;SDS011;3376;42.664;23.346;2023-03-01T02:43:39;2.00;;;1.90;;
6679;SDS011;3376;42.664;23.346;2023-03-01T02:46:07;1.70;;;1.70;;
6679;SDS011;3376;42.664;23.346;2023-03-01T02:48:41;2.33;;;2.23;;
6679;SDS011;3376;42.664;23.346;2023-03-01T02:51:14;1.87;;;1.87;;
6679;SDS011;3376;42.664;23.346;2023-03-01T02:54:01;2.30;;;2.20;;
6679;SDS011;3376;42.664;23.346;2023-03-01T02:56:38;1.90;;;1.90;;
6679;SDS011;3376;42.664;23.346;2023-03-01T02:59:06;2.00;;;1.93;;
6679;SDS011;3376;42.664;23.346;2023-03-01T03:01:34;2.13;;;2.03;;
6679;SDS011;3376;42.664;23.346;2023-03-01T03:04:03;2.03;;;1.97;;
6679;SDS011;3376;42.664;23.346;2023-03-01T03:06:31;2.03;;;2.03;;
6679;SDS011;3376;42.664;23.346;2023-03-01T03:08:58;1.90;;;1.90;;
6679;SDS011;3376;42.664;23.346;2023-03-01T03:11:25;2.37;;;2.27;;
6679;SDS011;3376;42.664;23.346;2023-03-01T03:13:52;2.57;;;2.47;;
6679;SDS011;3376;42.664;23.346;2023-03-01T03:16:20;2.97;;;2.87;;
6679;SDS011;3376;42.664;23.346;2023-03-01T03:18:47;3.00;;;2.90;;
6679;SDS011;3376;42.664;23.346;2023-03-01T03:21:14;2.97;;;2.87;;
6679;SDS011;3376;42.664;23.346;2023-03-01T03:23:42;2.97;;;2.87;;
6679;SDS011;3376;42.664;23.346;2023-03-01T03:26:09;3.00;;;2.90;;
6679;SDS011;3376;42.664;23.346;2023-03-01T03:28:40;3.07;;;2.97;;
6679;SDS011;3376;42.664;23.346;2023-03-01T03:31:07;3.30;;;2.90;;
6679;SDS011;3376;42.664;23.346;2023-03-01T03:33:36;2.73;;;2.63;;
6679;SDS011;3376;42.664;23.346;2023-03-01T03:36:03;2.60;;;2.50;;
6679;SDS011;3376;42.664;23.346;2023-03-01T03:38:30;2.40;;;2.30;;
6679;SDS011;3376;42.664;23.346;2023-03-01T03:41:02;2.30;;;2.20;;
6679;SDS011;3376;42.664;23.346;2023-03-01T03:43:30;2.00;;;2.00;;
6679;SDS011;3376;42.664;23.346;2023-03-01T03:49:03;1.93;;;1.83;;
6679;SDS011;3376;42.664;23.346;2023-03-01T03:51:29;2.40;;;2.30;;
6679;SDS011;3376;42.664;23.346;2023-03-01T03:53:56;1.93;;;1.83;;
6679;SDS011;3376;42.664;23.346;2023-03-01T03:56:23;2.50;;;2.40;;
6679;SDS011;3376;42.664;23.346;2023-03-01T03:59:09;1.87;;;1.80;;
6679;SDS011;3376;42.664;23.346;2023-03-01T04:01:36;2.10;;;2.00;;
6679;SDS011;3376;42.664;23.346;2023-03-01T04:04:04;2.10;;;2.00;;
6679;SDS011;3376;42.664;23.346;2023-03-01T04:06:32;2.30;;;2.10;;
6679;SDS011;3376;42.664;23.346;2023-03-01T04:08:59;2.17;;;2.07;;
6679;SDS011;3376;42.664;23.346;2023-03-01T04:11:28;1.73;;;1.73;;
6679;SDS011;3376;42.664;23.346;2023-03-01T04:13:55;1.50;;;1.50;;
6679;SDS011;3376;42.664;23.346;2023-03-01T04:16:24;2.20;;;2.10;;
6679;SDS011;3376;42.664;23.346;2023-03-01T04:18:51;1.90;;;1.73;;
6679;SDS011;3376;42.664;23.346;2023-03-01T04:21:20;1.80;;;1.80;;
6679;SDS011;3376;42.664;23.346;2023-03-01T04:23:47;2.10;;;2.00;;
6679;SDS011;3376;42.664;23.346;2023-03-01T04:26:17;1.80;;;1.80;;
6679;SDS011;3376;42.664;23.346;2023-03-01T04:28:44;1.73;;;1.63;;
6679;SDS011;3376;42.664;23.346;2023-03-01T04:31:14;2.27;;;2.17;;
6679;SDS011;3376;42.664;23.346;2023-03-01T04:33:44;2.23;;;1.63;;
6679;SDS011;3376;42.664;23.346;2023-03-01T04:36:12;1.90;;;1.80;;
6679;SDS011;3376;42.664;23.346;2023-03-01T04:38:42;2.13;;;2.03;;
6679;SDS011;3376;42.664;23.346;2023-03-01T04:41:12;2.23;;;2.13;;
6679;SDS011;3376;42.664;23.346;2023-03-01T04:43:40;2.10;;;2.00;;
6679;SDS011;3376;42.664;23.346;2023-03-01T04:46:08;2.30;;;2.10;;
6679;SDS011;3376;42.664;23.346;2023-03-01T04:48:38;2.20;;;2.10;;
6679;SDS011;3376;42.664;23.346;2023-03-01T04:51:05;2.17;;;2.07;;
6679;SDS011;3376;42.664;23.346;2023-03-01T04:53:33;1.97;;;1.87;;
6679;SDS011;3376;42.664;23.346;2023-03-01T04:56:03;2.00;;;2.00;;
6679;SDS011;3376;42.664;23.346;2023-03-01T04:58:30;2.53;;;2.43;;
6679;SDS011;3376;42.664;23.346;2023-03-01T05:00:56;2.17;;;2.07;;
6679;SDS011;3376;42.664;23.346;2023-03-01T05:03:23;1.97;;;1.80;;
6679;SDS011;3376;42.664;23.346;2023-03-01T05:05:51;3.10;;;1.90;;
6679;SDS011;3376;42.664;23.346;2023-03-01T05:08:18;2.10;;;1.90;;
6679;SDS011;3376;42.664;23.346;2023-03-01T05:10:46;1.53;;;1.53;;
6679;SDS011;3376;42.664;23.346;2023-03-01T05:13:16;4.33;;;1.70;;
6679;SDS011;3376;42.664;23.346;2023-03-01T05:15:47;1.87;;;1.87;;
6679;SDS011;3376;42.664;23.346;2023-03-01T05:18:14;1.40;;;1.40;;
6679;SDS011;3376;42.664;23.346;2023-03-01T05:20:41;1.40;;;1.40;;
6679;SDS011;3376;42.664;23.346;2023-03-01T05:23:08;2.83;;;1.93;;
6679;SDS011;3376;42.664;23.346;2023-03-01T05:25:35;1.90;;;1.80;;
6679;SDS011;3376;42.664;23.346;2023-03-01T05:28:05;1.60;;;1.60;;
6679;SDS011;3376;42.664;23.346;2023-03-01T05:30:36;1.80;;;1.80;;
6679;SDS011;3376;42.664;23.346;2023-03-01T05:33:05;1.93;;;1.83;;
6679;SDS011;3376;42.664;23.346;2023-03-01T05:35:35;1.47;;;1.47;;
6679;SDS011;3376;42.664;23.346;2023-03-01T05:38:02;1.70;;;1.60;;
6679;SDS011;3376;42.664;23.346;2023-03-01T05:40:29;1.80;;;1.80;;
6679;SDS011;3376;42.664;23.346;2023-03-01T05:42:56;1.40;;;1.40;;
6679;SDS011;3376;42.664;23.346;2023-03-01T05:45:23;2.90;;;2.03;;
6679;SDS011;3376;42.664;23.346;2023-03-01T05:47:52;1.80;;;1.60;;
6679;SDS011;3376;42.664;23.346;2023-03-01T05:50:21;1.57;;;1.57;;
6679;SDS011;3376;42.664;23.346;2023-03-01T05:52:50;1.40;;;1.40;;
6679;SDS011;3376;42.664;23.346;2023-03-01T05:55:18;1.30;;;1.30;;
6679;SDS011;3376;42.664;23.346;2023-03-01T05:57:47;1.67;;;1.57;;
6679;SDS011;3376;42.664;23.346;2023-03-01T06:00:16;1.90;;;1.80;;
6679;SDS011;3376;42.664;23.346;2023-03-01T06:02:47;1.80;;;1.70;;
6679;SDS011;3376;42.664;23.346;2023-03-01T06:05:15;3.40;;;1.90;;
6679;SDS011;3376;42.664;23.346;2023-03-01T06:07:42;1.60;;;1.60;;
6679;SDS011;3376;42.664;23.346;2023-03-01T06:10:10;2.00;;;2.00;;
6679;SDS011;3376;42.664;23.346;2023-03-01T06:12:40;1.97;;;1.87;;
6679;SDS011;3376;42.664;23.346;2023-03-01T06:15:09;1.90;;;1.90;;
6679;SDS011;3376;42.664;23.346;2023-03-01T06:17:38;2.07;;;1.97;;
6679;SDS011;3376;42.664;23.346;2023-03-01T06:20:07;2.20;;;2.03;;
6679;SDS011;3376;42.664;23.346;2023-03-01T06:22:37;2.10;;;2.00;;
6679;SDS011;3376;42.664;23.346;2023-03-01T06:25:04;2.90;;;2.40;;
6679;SDS011;3376;42.664;23.346;2023-03-01T06:27:32;2.33;;;2.23;;
6679;SDS011;3376;42.664;23.346;2023-03-01T06:29:59;2.50;;;2.40;;
6679;SDS011;3376;42.664;23.346;2023-03-01T06:32:26;2.40;;;2.13;;
6679;SDS011;3376;42.664;23.346;2023-03-01T06:34:53;2.50;;;2.40;;
6679;SDS011;3376;42.664;23.346;2023-03-01T06:37:19;2.10;;;2.00;;
6679;SDS011;3376;42.664;23.346;2023-03-01T06:39:48;2.53;;;2.43;;
6679;SDS011;3376;42.664;23.346;2023-03-01T06:42:14;2.27;;;2.17;;
6679;SDS011;3376;42.664;23.346;2023-03-01T06:44:41;2.27;;;2.17;;
6679;SDS011;3376;42.664;23.346;2023-03-01T06:47:08;2.47;;;2.37;;
6679;SDS011;3376;42.664;23.346;2023-03-01T06:49:35;2.10;;;2.00;;
6679;SDS011;3376;42.664;23.346;2023-03-01T06:52:01;3.07;;;2.87;;
6679;SDS011;3376;42.664;23.346;2023-03-01T06:54:29;2.17;;;2.07;;
6679;SDS011;3376;42.664;23.346;2023-03-01T06:56:57;3.47;;;2.40;;
6679;SDS011;3376;42.664;23.346;2023-03-01T06:59:23;2.27;;;2.17;;
6679;SDS011;3376;42.664;23.346;2023-03-01T07:01:50;2.67;;;2.57;;
6679;SDS011;3376;42.664;23.346;2023-03-01T07:04:17;2.60;;;2.40;;
6679;SDS011;3376;42.664;23.346;2023-03-01T07:06:44;1.97;;;1.87;;
6679;SDS011;3376;42.664;23.346;2023-03-01T07:09:10;4.07;;;1.87;;
6679;SDS011;3376;42.664;23.346;2023-03-01T07:11:37;1.97;;;1.87;;
6679;SDS011;3376;42.664;23.346;2023-03-01T07:14:05;1.67;;;1.57;;
6679;SDS011;3376;42.664;23.346;2023-03-01T07:16:32;1.50;;;1.50;;
6679;SDS011;3376;42.664;23.346;2023-03-01T07:18:58;1.83;;;1.80;;
6679;SDS011;3376;42.664;23.346;2023-03-01T07:21:25;2.03;;;1.93;;
6679;SDS011;3376;42.664;23.346;2023-03-01T07:23:52;1.63;;;1.53;;
6679;SDS011;3376;42.664;23.346;2023-03-01T07:26:19;1.50;;;1.50;;
6679;SDS011;3376;42.664;23.346;2023-03-01T07:28:45;2.43;;;2.30;;
6679;SDS011;3376;42.664;23.346;2023-03-01T07:31:14;2.00;;;1.90;;
6679;SDS011;3376;42.664;23.346;2023-03-01T07:33:41;2.13;;;1.97;;
6679;SDS011;3376;42.664;23.346;2023-03-01T07:36:08;2.03;;;1.93;;
6679;SDS011;3376;42.664;23.346;2023-03-01T07:38:35;2.90;;;2.67;;
6679;SDS011;3376;42.664;23.346;2023-03-01T07:41:02;1.80;;;1.70;;
6679;SDS011;3376;42.664;23.346;2023-03-01T07:43:30;2.87;;;1.53;;
6679;SDS011;3376;42.664;23.346;2023-03-01T07:45:58;1.50;;;1.50;;
6679;SDS011;3376;42.664;23.346;2023-03-01T07:48:27;1.10;;;1.10;;
6679;SDS011;3376;42.664;23.346;2023-03-01T07:50:55;2.10;;;2.00;;
6679;SDS011;3376;42.664;23.346;2023-03-01T07:53:24;1.83;;;1.73;;
6679;SDS011;3376;42.664;23.346;2023-03-01T07:55:59;1.97;;;1.47;;
6679;SDS011;3376;42.664;23.346;2023-03-01T07:58:27;1.53;;;1.43;;
6679;SDS011;3376;42.664;23.346;2023-03-01T08:00:53;1.80;;;1.70;;
6679;SDS011;3376;42.664;23.346;2023-03-01T08:03:20;1.30;;;1.30;;
6679;SDS011;3376;42.664;23.346;2023-03-01T08:05:48;1.60;;;1.60;;
6679;SDS011;3376;42.664;23.346;2023-03-01T08:08:15;1.87;;;1.77;;
6679;SDS011;3376;42.664;23.346;2023-03-01T08:10:42;1.57;;;1.57;;
6679;SDS011;3376;42.664;23.346;2023-03-01T08:13:08;1.63;;;1.63;;
6679;SDS011;3376;42.664;23.346;2023-03-01T08:15:35;2.20;;;1.83;;
6679;SDS011;3376;42.664;23.346;2023-03-01T08:18:02;3.93;;;1.57;;
6679;SDS011;3376;42.664;23.346;2023-03-01T08:20:29;1.53;;;1.53;;
6679;SDS011;3376;42.664;23.346;2023-03-01T08:22:58;3.30;;;3.10;;
6679;SDS011;3376;42.664;23.346;2023-03-01T08:25:25;2.43;;;2.33;;
6679;SDS011;3376;42.664;23.346;2023-03-01T08:27:52;2.03;;;2.00;;
6679;SDS011;3376;42.664;23.346;2023-03-01T08:30:18;2.50;;;2.40;;
6679;SDS011;3376;42.664;23.346;2023-03-01T08:32:45;2.67;;;2.00;;
6679;SDS011;3376;42.664;23.346;2023-03-01T08:35:12;2.20;;;2.10;;
6679;SDS011;3376;42.664;23.346;2023-03-01T08:37:39;3.27;;;2.40;;
6679;SDS011;3376;42.664;23.346;2023-03-01T08:40:08;2.67;;;2.57;;
6679;SDS011;3376;42.664;23.346;2023-03-01T08:42:36;2.27;;;2.17;;
6679;SDS011;3376;42.664;23.346;2023-03-01T08:45:02;2.43;;;1.90;;
6679;SDS011;3376;42.664;23.346;2023-03-01T08:47:30;2.40;;;2.30;;
6679;SDS011;3376;42.664;23.346;2023-03-01T08:49:58;1.97;;;1.87;;
6679;SDS011;3376;42.664;23.346;2023-03-01T08:52:25;4.23;;;1.90;;
6679;SDS011;3376;42.664;23.346;2023-03-01T08:54:52;1.60;;;1.60;;
6679;SDS011;3376;42.664;23.346;2023-03-01T08:57:21;2.30;;;2.20;;
6679;SDS011;3376;42.664;23.346;2023-03-01T08:59:47;3.20;;;3.00;;
6679;SDS011;3376;42.664;23.346;2023-03-01T09:02:15;2.27;;;2.17;;
6679;SDS011;3376;42.664;23.346;2023-03-01T09:04:44;2.10;;;2.00;;
6679;SDS011;3376;42.664;23.346;2023-03-01T09:07:27;4.10;;;3.90;;
6679;SDS011;3376;42.664;23.346;2023-03-01T09:09:54;2.83;;;2.73;;
6679;SDS011;3376;42.664;23.346;2023-03-01T09:12:23;2.40;;;2.30;;
6679;SDS011;3376;42.664;23.346;2023-03-01T09:14:51;2.97;;;2.43;;
6679;SDS011;3376;42.664;23.346;2023-03-01T09:17:17;2.10;;;2.00;;
6679;SDS011;3376;42.664;23.346;2023-03-01T09:19:46;2.17;;;2.07;;
6679;SDS011;3376;42.664;23.346;2023-03-01T09:22:13;2.00;;;1.90;;
6679;SDS011;3376;42.664;23.346;2023-03-01T09:24:40;2.07;;;1.97;;
6679;SDS011;3376;42.664;23.346;2023-03-01T09:27:06;2.67;;;1.30;;
6679;SDS011;3376;42.664;23.346;2023-03-01T09:29:36;1.80;;;1.57;;
6679;SDS011;3376;42.664;23.346;2023-03-01T09:32:03;1.90;;;1.80;;
6679;SDS011;3376;42.664;23.346;2023-03-01T09:34:30;1.00;;;1.00;;
6679;SDS011;3376;42.664;23.346;2023-03-01T09:37:17;1.10;;;1.10;;
6679;SDS011;3376;42.664;23.346;2023-03-01T09:39:44;0.97;;;0.97;;
6679;SDS011;3376;42.664;23.346;2023-03-01T09:42:10;1.27;;;1.20;;
6679;SDS011;3376;42.664;23.346;2023-03-01T09:44:43;1.87;;;1.30;;
6679;SDS011;3376;42.664;23.346;2023-03-01T09:47:16;1.10;;;1.10;;
6679;SDS011;3376;42.664;23.346;2023-03-01T09:49:55;1.07;;;1.07;;
6679;SDS011;3376;42.664;23.346;2023-03-01T09:52:29;1.10;;;1.10;;
6679;SDS011;3376;42.664;23.346;2023-03-01T09:55:04;0.80;;;0.80;;
6679;SDS011;3376;42.664;23.346;2023-03-01T09:57:38;1.23;;;1.23;;
6679;SDS011;3376;42.664;23.346;2023-03-01T10:00:16;2.63;;;1.20;;
6679;SDS011;3376;42.664;23.346;2023-03-01T10:02:57;1.43;;;1.20;;
6679;SDS011;3376;42.664;23.346;2023-03-01T10:05:31;1.10;;;0.93;;
6679;SDS011;3376;42.664;23.346;2023-03-01T10:08:15;1.30;;;1.30;;
6679;SDS011;3376;42.664;23.346;2023-03-01T10:10:54;1.10;;;1.10;;
6679;SDS011;3376;42.664;23.346;2023-03-01T10:13:24;1.33;;;1.33;;
6679;SDS011;3376;42.664;23.346;2023-03-01T10:15:57;1.17;;;1.17;;
6679;SDS011;3376;42.664;23.346;2023-03-01T10:18:30;1.50;;;1.50;;
6679;SDS011;3376;42.664;23.346;2023-03-01T10:21:02;1.30;;;1.27;;
6679;SDS011;3376;42.664;23.346;2023-03-01T10:23:35;1.33;;;1.33;;
6679;SDS011;3376;42.664;23.346;2023-03-01T10:26:24;1.30;;;1.30;;
6679;SDS011;3376;42.664;23.346;2023-03-01T10:29:04;1.33;;;1.33;;
6679;SDS011;3376;42.664;23.346;2023-03-01T10:31:36;1.30;;;1.30;;
6679;SDS011;3376;42.664;23.346;2023-03-01T10:34:12;1.30;;;1.30;;
6679;SDS011;3376;42.664;23.346;2023-03-01T10:36:41;1.47;;;1.47;;
6679;SDS011;3376;42.664;23.346;2023-03-01T10:39:14;1.77;;;1.67;;
6679;SDS011;3376;42.664;23.346;2023-03-01T10:44:35;2.03;;;1.93;;
6679;SDS011;3376;42.664;23.346;2023-03-01T10:47:08;2.03;;;1.93;;
6679;SDS011;3376;42.664;23.346;2023-03-01T10:49:43;3.10;;;1.90;;
6679;SDS011;3376;42.664;23.346;2023-03-01T10:52:19;2.23;;;2.13;;
6679;SDS011;3376;42.664;23.346;2023-03-01T10:54:51;2.13;;;1.87;;
6679;SDS011;3376;42.664;23.346;2023-03-01T11:00:14;2.80;;;2.70;;
6679;SDS011;3376;42.664;23.346;2023-03-01T11:02:49;1.80;;;1.70;;
6679;SDS011;3376;42.664;23.346;2023-03-01T11:05:27;2.03;;;1.90;;
6679;SDS011;3376;42.664;23.346;2023-03-01T11:07:56;2.10;;;2.00;;
6679;SDS011;3376;42.664;23.346;2023-03-01T11:10:24;2.40;;;2.30;;
6679;SDS011;3376;42.664;23.346;2023-03-01T11:12:52;2.87;;;2.57;;
6679;SDS011;3376;42.664;23.346;2023-03-01T11:15:21;1.90;;;1.77;;
6679;SDS011;3376;42.664;23.346;2023-03-01T11:17:52;1.80;;;1.70;;
6679;SDS011;3376;42.664;23.346;2023-03-01T11:20:24;1.83;;;1.73;;
6679;SDS011;3376;42.664;23.346;2023-03-01T11:22:54;2.33;;;2.23;;
6679;SDS011;3376;42.664;23.346;2023-03-01T11:25:24;2.03;;;1.80;;
6679;SDS011;3376;42.664;23.346;2023-03-01T11:27:52;2.50;;;2.40;;
6679;SDS011;3376;42.664;23.346;2023-03-01T11:30:22;2.30;;;2.20;;
6679;SDS011;3376;42.664;23.346;2023-03-01T11:32:55;3.17;;;2.33;;
6679;SDS011;3376;42.664;23.346;2023-03-01T11:35:29;1.80;;;1.80;;
6679;SDS011;3376;42.664;23.346;2023-03-01T11:37:59;2.17;;;2.07;;
6679;SDS011;3376;42.664;23.346;2023-03-01T11:40:37;2.43;;;2.33;;
6679;SDS011;3376;42.664;23.346;2023-03-01T11:43:10;2.07;;;1.97;;
6679;SDS011;3376;42.664;23.346;2023-03-01T11:45:46;1.93;;;1.93;;
6679;SDS011;3376;42.664;23.346;2023-03-01T11:51:14;2.63;;;2.53;;
6679;SDS011;3376;42.664;23.346;2023-03-01T11:53:56;2.53;;;2.33;;
6679;SDS011;3376;42.664;23.346;2023-03-01T11:56:34;1.87;;;1.77;;
6679;SDS011;3376;42.664;23.346;2023-03-01T11:59:13;2.10;;;2.07;;
6679;SDS011;3376;42.664;23.346;2023-03-01T12:05:21;2.90;;;2.77;;
6679;SDS011;3376;42.664;23.346;2023-03-01T12:08:11;3.83;;;3.63;;
6679;SDS011;3376;42.664;23.346;2023-03-01T12:10:47;3.53;;;3.43;;
6679;SDS011;3376;42.664;23.346;2023-03-01T12:16:26;3.83;;;3.63;;
6679;SDS011;3376;42.664;23.346;2023-03-01T12:19:06;4.57;;;4.37;;
6679;SDS011;3376;42.664;23.346;2023-03-01T12:21:46;3.40;;;3.30;;
6679;SDS011;3376;42.664;23.346;2023-03-01T12:24:36;3.27;;;3.17;;
6679;SDS011;3376;42.664;23.346;2023-03-01T12:27:19;3.07;;;2.97;;
6679;SDS011;3376;42.664;23.346;2023-03-01T12:30:04;3.07;;;2.97;;
6679;SDS011;3376;42.664;23.346;2023-03-01T12:32:47;2.77;;;2.57;;
6679;SDS011;3376;42.664;23.346;2023-03-01T12:35:34;3.40;;;3.20;;
6679;SDS011;3376;42.664;23.346;2023-03-01T12:38:19;3.93;;;3.20;;
6679;SDS011;3376;42.664;23.346;2023-03-01T12:44:11;3.60;;;3.30;;
6679;SDS011;3376;42.664;23.346;2023-03-01T12:46:57;3.63;;;3.43;;
6679;SDS011;3376;42.664;23.346;2023-03-01T12:49:32;2.80;;;2.70;;
6679;SDS011;3376;42.664;23.346;2023-03-01T12:52:07;3.80;;;3.20;;
6679;SDS011;3376;42.664;23.346;2023-03-01T12:54:39;3.93;;;3.83;;
6679;SDS011;3376;42.664;23.346;2023-03-01T12:57:09;3.37;;;3.27;;
6679;SDS011;3376;42.664;23.346;2023-03-01T12:59:42;3.17;;;3.07;;
6679;SDS011;3376;42.664;23.346;2023-03-01T13:02:19;3.40;;;3.30;;
6679;SDS011;3376;42.664;23.346;2023-03-01T13:04:59;3.10;;;3.00;;
6679;SDS011;3376;42.664;23.346;2023-03-01T13:07:44;3.00;;;2.90;;
6679;SDS011;3376;42.664;23.346;2023-03-01T13:10:21;3.17;;;2.97;;
6679;SDS011;3376;42.664;23.346;2023-03-01T13:13:03;3.47;;;3.17;;
6679;SDS011;3376;42.664;23.346;2023-03-01T13:15:40;4.20;;;3.33;;
6679;SDS011;3376;42.664;23.346;2023-03-01T13:20:54;3.90;;;3.33;;
6679;SDS011;3376;42.664;23.346;2023-03-01T13:23:24;2.50;;;2.40;;
6679;SDS011;3376;42.664;23.346;2023-03-01T13:26:05;2.80;;;2.70;;
6679;SDS011;3376;42.664;23.346;2023-03-01T13:34:40;3.23;;;3.07;;
6679;SDS011;3376;42.664;23.346;2023-03-01T13:37:09;2.23;;;2.13;;
6679;SDS011;3376;42.664;23.346;2023-03-01T13:39:44;2.27;;;2.20;;
6679;SDS011;3376;42.664;23.346;2023-03-01T13:48:00;3.70;;;3.50;;
6679;SDS011;3376;42.664;23.346;2023-03-01T13:50:32;3.70;;;3.43;;
6679;SDS011;3376;42.664;23.346;2023-03-01T13:53:04;8.37;;;3.80;;
6679;SDS011;3376;42.664;23.346;2023-03-01T13:55:36;3.83;;;3.63;;
6679;SDS011;3376;42.664;23.346;2023-03-01T13:58:14;3.43;;;3.03;;
6679;SDS011;3376;42.664;23.346;2023-03-01T14:00:45;4.23;;;3.93;;
6679;SDS011;3376;42.664;23.346;2023-03-01T14:03:12;4.27;;;3.97;;
6679;SDS011;3376;42.664;23.346;2023-03-01T14:05:43;3.27;;;3.07;;
6679;SDS011;3376;42.664;23.346;2023-03-01T14:08:23;3.37;;;3.00;;
6679;SDS011;3376;42.664;23.346;2023-03-01T14:14:04;2.63;;;2.40;;
6679;SDS011;3376;42.664;23.346;2023-03-01T14:16:45;3.00;;;2.90;;
6679;SDS011;3376;42.664;23.346;2023-03-01T14:19:19;3.33;;;2.57;;
6679;SDS011;3376;42.664;23.346;2023-03-01T14:21:58;2.93;;;2.73;;
6679;SDS011;3376;42.664;23.346;2023-03-01T14:24:27;4.00;;;3.53;;
6679;SDS011;3376;42.664;23.346;2023-03-01T14:26:55;2.63;;;2.53;;
6679;SDS011;3376;42.664;23.346;2023-03-01T14:29:27;3.37;;;2.93;;
6679;SDS011;3376;42.664;23.346;2023-03-01T14:32:07;2.47;;;2.27;;
6679;SDS011;3376;42.664;23.346;2023-03-01T14:34:35;2.37;;;2.27;;
6679;SDS011;3376;42.664;23.346;2023-03-01T14:37:09;2.53;;;2.43;;
6679;SDS011;3376;42.664;23.346;2023-03-01T14:39:37;2.17;;;2.07;;
6679;SDS011;3376;42.664;23.346;2023-03-01T14:42:04;2.93;;;2.73;;
6679;SDS011;3376;42.664;23.346;2023-03-01T14:44:32;2.10;;;2.00;;
6679;SDS011;3376;42.664;23.346;2023-03-01T14:47:02;2.20;;;2.10;;
6679;SDS011;3376;42.664;23.346;2023-03-01T14:49:31;2.13;;;2.03;;
6679;SDS011;3376;42.664;23.346;2023-03-01T14:51:59;7.93;;;2.17;;
6679;SDS011;3376;42.664;23.346;2023-03-01T14:54:29;2.10;;;1.90;;
6679;SDS011;3376;42.664;23.346;2023-03-01T14:57:03;2.70;;;2.50;;
6679;SDS011;3376;42.664;23.346;2023-03-01T14:59:29;3.23;;;2.03;;
6679;SDS011;3376;42.664;23.346;2023-03-01T15:02:00;3.07;;;2.87;;
6679;SDS011;3376;42.664;23.346;2023-03-01T15:04:28;2.13;;;2.03;;
6679;SDS011;3376;42.664;23.346;2023-03-01T15:06:56;2.43;;;2.20;;
6679;SDS011;3376;42.664;23.346;2023-03-01T15:09:36;2.30;;;2.20;;
6679;SDS011;3376;42.664;23.346;2023-03-01T15:15:32;3.73;;;2.30;;
6679;SDS011;3376;42.664;23.346;2023-03-01T15:18:01;5.93;;;3.17;;
6679;SDS011;3376;42.664;23.346;2023-03-01T15:20:30;3.23;;;3.03;;
6679;SDS011;3376;42.664;23.346;2023-03-01T15:23:00;2.40;;;2.30;;
6679;SDS011;3376;42.664;23.346;2023-03-01T15:25:29;2.80;;;2.60;;
6679;SDS011;3376;42.664;23.346;2023-03-01T15:27:57;2.80;;;2.70;;
6679;SDS011;3376;42.664;23.346;2023-03-01T15:30:26;2.83;;;2.73;;
6679;SDS011;3376;42.664;23.346;2023-03-01T15:35:54;4.87;;;3.70;;
6679;SDS011;3376;42.664;23.346;2023-03-01T15:41:23;4.10;;;3.70;;
6679;SDS011;3376;42.664;23.346;2023-03-01T15:43:51;4.20;;;3.43;;
6679;SDS011;3376;42.664;23.346;2023-03-01T15:46:24;4.30;;;2.97;;
6679;SDS011;3376;42.664;23.346;2023-03-01T15:48:56;3.10;;;3.00;;
6679;SDS011;3376;42.664;23.346;2023-03-01T15:51:28;3.93;;;3.67;;
6679;SDS011;3376;42.664;23.346;2023-03-01T15:53:58;3.97;;;3.77;;
6679;SDS011;3376;42.664;23.346;2023-03-01T15:56:28;3.57;;;3.27;;
6679;SDS011;3376;42.664;23.346;2023-03-01T15:58:57;3.50;;;3.40;;
6679;SDS011;3376;42.664;23.346;2023-03-01T16:01:25;3.73;;;3.20;;
6679;SDS011;3376;42.664;23.346;2023-03-01T16:03:52;2.60;;;2.50;;
6679;SDS011;3376;42.664;23.346;2023-03-01T16:06:21;3.10;;;2.90;;
6679;SDS011;3376;42.664;23.346;2023-03-01T16:08:47;3.50;;;3.30;;